createdAt,value
2019-03-13T00:00:07.569Z,72.4
2019-03-13T00:00:57.539Z,72.3
2019-03-13T00:01:47.555Z,72.3
2019-03-13T00:02:38.441Z,72.2
2019-03-13T00:03:28.675Z,71.7
2019-03-13T00:04:18.379Z,71.8
2019-03-13T00:05:08.361Z,71.9
2019-03-13T00:05:58.354Z,71.9
2019-03-13T00:06:48.365Z,71.9
2019-03-13T00:07:38.415Z,71.9
2019-03-13T00:08:28.478Z,71.9
2019-03-13T00:09:18.476Z,72
2019-03-13T00:10:08.351Z,72.2
2019-03-13T00:10:58.327Z,71.9
2019-03-13T00:11:48.929Z,72.1
2019-03-13T00:12:38.937Z,72.3
2019-03-13T00:13:31.784Z,72
2019-03-13T00:14:18.953Z,72.2
2019-03-13T00:15:08.922Z,72.2
2019-03-13T00:15:58.932Z,72.3
2019-03-13T00:16:49.035Z,72.1
2019-03-13T00:17:38.967Z,72.4
2019-03-13T00:18:32.299Z,72.3
2019-03-13T00:19:18.987Z,72.3
2019-03-13T00:20:08.966Z,72.4
2019-03-13T00:20:58.981Z,72.4
2019-03-13T00:21:48.934Z,72.4
2019-03-13T00:22:38.918Z,72.5
2019-03-13T00:23:29.129Z,72.4
2019-03-13T00:24:18.983Z,72.5
2019-03-13T00:25:08.960Z,72.6
2019-03-13T00:25:58.975Z,72.7
2019-03-13T00:26:48.921Z,72.7
2019-03-13T00:27:38.918Z,72.8
2019-03-13T00:28:29.005Z,72.7
2019-03-13T00:29:18.926Z,72.7
2019-03-13T00:30:09.120Z,72.5
2019-03-13T00:30:58.926Z,72.6
2019-03-13T00:31:48.952Z,72.5
2019-03-13T00:32:39.007Z,72.5
2019-03-13T00:33:28.934Z,72.6
2019-03-13T00:34:18.968Z,72.5
2019-03-13T00:35:08.989Z,72.7
2019-03-13T00:35:59.000Z,72.6
2019-03-13T00:36:48.940Z,72.7
2019-03-13T00:37:39.044Z,72.5
2019-03-13T00:38:28.967Z,72.5
2019-03-13T00:39:18.946Z,72.5
2019-03-13T00:40:08.967Z,72.7
2019-03-13T00:40:59.043Z,72.7
2019-03-13T00:41:48.971Z,72.7
2019-03-13T00:42:39.134Z,72.6
2019-03-13T00:43:28.944Z,72.6
2019-03-13T00:44:18.967Z,72.7
2019-03-13T00:45:08.935Z,72.7
2019-03-13T00:45:58.935Z,72.7
2019-03-13T00:46:48.972Z,72.9
2019-03-13T00:47:38.902Z,72.8
2019-03-13T00:48:29.018Z,73
2019-03-13T00:49:19.086Z,73
2019-03-13T00:50:08.936Z,73
2019-03-13T00:50:59.486Z,73.1
2019-03-13T00:51:48.928Z,73.1
2019-03-13T00:52:39.040Z,73.1
2019-03-13T00:53:29.206Z,73.2
2019-03-13T00:54:19.004Z,73.1
2019-03-13T00:55:08.949Z,73
2019-03-13T00:55:58.965Z,73
2019-03-13T00:56:48.989Z,72.9
2019-03-13T00:57:40.735Z,72.9
2019-03-13T00:58:29.212Z,73
2019-03-13T00:59:22.307Z,73
2019-03-13T01:00:12.333Z,73.3
2019-03-13T01:01:02.261Z,73.3
2019-03-13T01:01:52.278Z,73.2
2019-03-13T01:02:42.222Z,73.1
2019-03-13T01:03:32.570Z,73.1
2019-03-13T01:04:22.244Z,73
2019-03-13T01:05:12.263Z,73.1
2019-03-13T01:06:02.504Z,73
2019-03-13T01:06:52.849Z,73
2019-03-13T01:07:43.317Z,72.8
2019-03-13T01:08:32.304Z,72.9
2019-03-13T01:09:22.258Z,72.9
2019-03-13T01:10:12.328Z,72.8
2019-03-13T01:11:02.284Z,73
2019-03-13T01:11:53.269Z,72.8
2019-03-13T01:12:44.225Z,72.8
2019-03-13T01:13:33.288Z,72.9
2019-03-13T01:14:23.307Z,72.9
2019-03-13T01:15:13.204Z,72.9
2019-03-13T01:16:03.278Z,72.5
2019-03-13T01:16:53.248Z,72.6
2019-03-13T01:17:44.622Z,72.6
2019-03-13T01:18:33.254Z,72.4
2019-03-13T01:19:23.254Z,72.4
2019-03-13T01:20:13.365Z,72.4
2019-03-13T01:21:03.462Z,72.3
2019-03-13T01:21:53.436Z,72.4
2019-03-13T01:22:43.606Z,72.3
2019-03-13T01:23:33.257Z,72.3
2019-03-13T01:24:23.353Z,72.5
2019-03-13T01:25:13.355Z,72.4
2019-03-13T01:26:03.255Z,72.4
2019-03-13T01:26:53.291Z,72.3
2019-03-13T01:27:43.526Z,72.4
2019-03-13T01:28:33.273Z,72.3
2019-03-13T01:29:23.262Z,72.2
2019-03-13T01:30:13.309Z,72.2
2019-03-13T01:31:03.331Z,72.4
2019-03-13T01:31:53.300Z,72.4
2019-03-13T01:32:45.474Z,72.3
2019-03-13T01:33:33.553Z,72.4
2019-03-13T01:34:23.482Z,72.4
2019-03-13T01:35:13.531Z,72.3
2019-03-13T01:36:03.576Z,72.4
2019-03-13T01:36:53.529Z,72.5
2019-03-13T01:37:44.067Z,72.8
2019-03-13T01:38:33.513Z,72.7
2019-03-13T01:39:23.507Z,72.8
2019-03-13T01:40:13.632Z,72.7
2019-03-13T01:41:03.587Z,72.5
2019-03-13T01:41:53.515Z,72.5
2019-03-13T01:42:47.009Z,72.6
2019-03-13T01:43:33.494Z,72.5
2019-03-13T01:44:23.605Z,72.5
2019-03-13T01:45:13.674Z,72.5
2019-03-13T01:46:03.502Z,72.4
2019-03-13T01:46:53.525Z,72.4
2019-03-13T01:47:44.716Z,72.4
2019-03-13T01:48:33.527Z,72.2
2019-03-13T01:49:23.521Z,72.3
2019-03-13T01:50:13.552Z,72.4
2019-03-13T01:51:03.506Z,72.3
2019-03-13T01:51:53.562Z,72.3
2019-03-13T01:52:44.329Z,72.4
2019-03-13T01:53:33.554Z,72.3
2019-03-13T01:54:23.568Z,72.3
2019-03-13T01:55:13.514Z,72.3
2019-03-13T01:56:03.530Z,72.3
2019-03-13T01:56:53.552Z,72.2
2019-03-13T01:57:43.518Z,72.3
2019-03-13T01:58:33.550Z,72.2
2019-03-13T01:59:23.517Z,72.2
2019-03-13T02:00:13.532Z,72.1
2019-03-13T02:01:03.564Z,72.1
2019-03-13T02:01:53.509Z,72.1
2019-03-13T02:02:43.989Z,72.1
2019-03-13T02:03:33.520Z,72
2019-03-13T02:04:23.533Z,72
2019-03-13T02:05:13.552Z,72.2
2019-03-13T02:06:03.544Z,72.1
2019-03-13T02:06:53.693Z,72.3
2019-03-13T02:07:43.567Z,72.3
2019-03-13T02:08:33.535Z,72.2
2019-03-13T02:09:23.559Z,72.2
2019-03-13T02:10:13.462Z,72.1
2019-03-13T02:11:03.467Z,72.1
2019-03-13T02:11:53.786Z,72.1
2019-03-13T02:12:44.122Z,72.1
2019-03-13T02:13:34.459Z,72.1
2019-03-13T02:14:23.509Z,72
2019-03-13T02:15:13.741Z,71.9
2019-03-13T02:16:03.660Z,72
2019-03-13T02:16:53.653Z,71.9
2019-03-13T02:17:43.865Z,72.1
2019-03-13T02:18:33.805Z,72.1
2019-03-13T02:19:23.680Z,72.1
2019-03-13T02:20:13.883Z,72.1
2019-03-13T02:21:03.757Z,72.1
2019-03-13T02:21:54.518Z,72.2
2019-03-13T02:22:44.031Z,72.3
2019-03-13T02:23:33.773Z,72.1
2019-03-13T02:24:23.788Z,72.1
2019-03-13T02:25:13.790Z,72.2
2019-03-13T02:26:03.806Z,72.2
2019-03-13T02:26:54.125Z,72.2
2019-03-13T02:27:43.778Z,72.2
2019-03-13T02:28:33.803Z,72.2
2019-03-13T02:29:23.755Z,72.2
2019-03-13T02:30:13.841Z,72.2
2019-03-13T02:31:03.897Z,72.2
2019-03-13T02:31:53.754Z,72.2
2019-03-13T02:32:44.060Z,72.3
2019-03-13T02:33:33.762Z,72.3
2019-03-13T02:34:23.766Z,72.2
2019-03-13T02:35:13.899Z,72.2
2019-03-13T02:36:03.762Z,72.3
2019-03-13T02:36:55.731Z,72.3
2019-03-13T02:37:43.762Z,72.3
2019-03-13T02:38:33.752Z,72.2
2019-03-13T02:39:23.770Z,72.2
2019-03-13T02:40:13.852Z,72.2
2019-03-13T02:41:03.875Z,72.2
2019-03-13T02:41:56.700Z,72.3
2019-03-13T02:42:44.133Z,72.3
2019-03-13T02:43:34.635Z,72.4
2019-03-13T02:44:23.772Z,72.3
2019-03-13T02:45:13.812Z,72.3
2019-03-13T02:46:03.763Z,72.2
2019-03-13T02:46:53.768Z,72.3
2019-03-13T02:47:43.770Z,72.3
2019-03-13T02:48:33.994Z,72.4
2019-03-13T02:49:23.800Z,72.4
2019-03-13T02:50:13.857Z,72.3
2019-03-13T02:51:03.775Z,72.2
2019-03-13T02:51:53.800Z,72.5
2019-03-13T02:52:44.143Z,72.6
2019-03-13T02:53:34.136Z,72.6
2019-03-13T02:54:23.790Z,72.6
2019-03-13T02:55:14.056Z,72.6
2019-03-13T02:56:04.262Z,72.5
2019-03-13T02:56:54.320Z,72.5
2019-03-13T02:57:44.317Z,72.5
2019-03-13T02:58:34.280Z,72.5
2019-03-13T02:59:24.298Z,72.5
2019-03-13T03:00:15.121Z,72.5
2019-03-13T03:01:05.099Z,72.6
2019-03-13T03:01:55.049Z,72.7
2019-03-13T03:02:45.057Z,72.7
2019-03-13T03:03:35.009Z,72.7
2019-03-13T03:04:25.054Z,72.8
2019-03-13T03:05:15.036Z,72.8
2019-03-13T03:06:05.052Z,72.9
2019-03-13T03:06:55.039Z,73
2019-03-13T03:07:45.021Z,73
2019-03-13T03:08:35.058Z,72.9
2019-03-13T03:09:25.072Z,73
2019-03-13T03:10:15.086Z,73
2019-03-13T03:11:05.038Z,73
2019-03-13T03:12:02.087Z,73.1
2019-03-13T03:12:50.263Z,73.2
2019-03-13T03:13:40.130Z,73.1
2019-03-13T03:14:30.187Z,73
2019-03-13T03:15:20.891Z,73.2
2019-03-13T03:16:10.785Z,73.3
2019-03-13T03:17:01.777Z,73.4
2019-03-13T03:17:52.273Z,73.4
2019-03-13T03:18:42.315Z,73.4
2019-03-13T03:19:32.441Z,73.3
2019-03-13T03:20:22.407Z,73.2
2019-03-13T03:21:12.259Z,73.5
2019-03-13T03:22:04.175Z,73.4
2019-03-13T03:22:52.948Z,73.4
2019-03-13T03:23:45.124Z,73.5
2019-03-13T03:24:32.966Z,73.5
2019-03-13T03:25:22.998Z,73.5
2019-03-13T03:26:12.963Z,73.5
2019-03-13T03:27:04.139Z,73.6
2019-03-13T03:27:52.934Z,73.8
2019-03-13T03:28:42.996Z,73.8
2019-03-13T03:29:32.981Z,74.1
2019-03-13T03:30:24.023Z,74.1
2019-03-13T03:31:13.978Z,74.1
2019-03-13T03:32:04.022Z,74.1
2019-03-13T03:32:53.971Z,74
2019-03-13T03:33:43.943Z,74
2019-03-13T03:34:33.968Z,74
2019-03-13T03:35:24.017Z,74.1
2019-03-13T03:36:14.055Z,74.1
2019-03-13T03:37:06.361Z,74.1
2019-03-13T03:37:53.987Z,74
2019-03-13T03:38:43.917Z,74.4
2019-03-13T03:39:35.028Z,74.4
2019-03-13T03:40:25.140Z,74.5
2019-03-13T03:41:15.083Z,74.5
2019-03-13T03:42:06.251Z,74.6
2019-03-13T03:42:55.043Z,74.6
2019-03-13T03:43:45.083Z,74.5
2019-03-13T03:44:35.144Z,74.5
2019-03-13T03:45:25.162Z,74.7
2019-03-13T03:46:15.053Z,74.6
2019-03-13T03:47:06.752Z,74.8
2019-03-13T03:47:57.138Z,74.6
2019-03-13T03:48:47.330Z,74.6
2019-03-13T03:49:37.190Z,74.5
2019-03-13T03:50:27.175Z,74.5
2019-03-13T03:51:17.201Z,74.6
2019-03-13T03:52:07.264Z,74.7
2019-03-13T03:52:57.307Z,74.8
2019-03-13T03:53:47.189Z,74.7
2019-03-13T03:54:37.493Z,74.5
2019-03-13T03:55:28.713Z,74.7
2019-03-13T03:56:20.658Z,74.6
2019-03-13T03:57:11.515Z,74.6
2019-03-13T03:58:00.612Z,74.6
2019-03-13T03:59:21.005Z,74.5
2019-03-13T03:59:40.639Z,74.4
2019-03-13T04:00:30.644Z,74.5
2019-03-13T04:01:20.630Z,74.4
2019-03-13T04:02:11.765Z,74.4
2019-03-13T04:03:00.674Z,74.2
2019-03-13T04:03:50.811Z,74.1
2019-03-13T04:04:40.658Z,74.1
2019-03-13T04:05:30.653Z,74.1
2019-03-13T04:06:20.654Z,74
2019-03-13T04:07:11.392Z,74
2019-03-13T04:08:00.648Z,73.9
2019-03-13T04:08:50.777Z,73.8
2019-03-13T04:09:40.638Z,73.8
2019-03-13T04:10:30.662Z,73.7
2019-03-13T04:11:21.318Z,73.7
2019-03-13T04:12:12.109Z,73.7
2019-03-13T04:13:01.836Z,73.6
2019-03-13T04:13:51.876Z,73.6
2019-03-13T04:14:41.845Z,73.6
2019-03-13T04:15:31.858Z,73.6
2019-03-13T04:16:21.859Z,73.6
2019-03-13T04:17:11.865Z,73.6
2019-03-13T04:18:01.873Z,73.5
2019-03-13T04:18:51.854Z,73.5
2019-03-13T04:19:41.821Z,73.5
2019-03-13T04:20:31.843Z,73.6
2019-03-13T04:21:21.855Z,73.7
2019-03-13T04:22:11.968Z,73.8
2019-03-13T04:23:01.823Z,73.9
2019-03-13T04:23:51.836Z,73.9
2019-03-13T04:24:41.841Z,73.9
2019-03-13T04:25:31.865Z,73.8
2019-03-13T04:26:21.838Z,73.9
2019-03-13T04:27:12.547Z,73.8
2019-03-13T04:28:01.827Z,73.8
2019-03-13T04:28:51.843Z,73.8
2019-03-13T04:29:41.882Z,73.8
2019-03-13T04:30:31.835Z,73.9
2019-03-13T04:31:21.847Z,73.9
2019-03-13T04:32:12.552Z,73.9
2019-03-13T04:33:01.856Z,73.9
2019-03-13T04:33:51.850Z,73.9
2019-03-13T04:34:41.847Z,74.1
2019-03-13T04:35:32.663Z,74.1
2019-03-13T04:36:22.655Z,74.1
2019-03-13T04:37:14.179Z,74
2019-03-13T04:38:03.794Z,74
2019-03-13T04:38:53.733Z,74
2019-03-13T04:39:43.774Z,73.9
2019-03-13T04:40:33.783Z,73.8
2019-03-13T04:41:23.719Z,73.8
2019-03-13T04:42:16.337Z,73.8
2019-03-13T04:43:03.720Z,73.7
2019-03-13T04:43:53.737Z,73.8
2019-03-13T04:44:43.761Z,73.7
2019-03-13T04:45:33.893Z,73.7
2019-03-13T04:46:23.844Z,73.6
2019-03-13T04:47:17.522Z,73.5
2019-03-13T04:48:04.510Z,73.4
2019-03-13T04:48:54.520Z,73.3
2019-03-13T04:49:44.518Z,73.2
2019-03-13T04:50:34.497Z,73.2
2019-03-13T04:51:24.481Z,73.2
2019-03-13T04:52:14.777Z,73.2
2019-03-13T04:53:04.522Z,73.3
2019-03-13T04:53:55.697Z,73.3
2019-03-13T04:54:45.769Z,73.3
2019-03-13T04:55:35.817Z,73.4
2019-03-13T04:56:25.680Z,73.4
2019-03-13T04:57:15.734Z,73.5
2019-03-13T04:58:05.679Z,73.6
2019-03-13T04:58:55.695Z,73.7
2019-03-13T04:59:45.763Z,73.6
2019-03-13T05:00:35.686Z,73.7
2019-03-13T05:01:26.286Z,73.6
2019-03-13T05:02:16.510Z,73.7
2019-03-13T05:03:05.962Z,73.7
2019-03-13T05:03:55.994Z,73.6
2019-03-13T05:04:45.958Z,73.6
2019-03-13T05:05:36.019Z,73.6
2019-03-13T05:06:26.697Z,73.6
2019-03-13T05:07:16.812Z,73.5
2019-03-13T05:08:06.668Z,73.7
2019-03-13T05:08:56.689Z,73.6
2019-03-13T05:09:46.673Z,73.6
2019-03-13T05:10:36.740Z,73.5
2019-03-13T05:11:26.761Z,73.5
2019-03-13T05:12:16.677Z,73.7
2019-03-13T05:13:06.791Z,73.9
2019-03-13T05:13:56.771Z,73.8
2019-03-13T05:14:46.722Z,74.1
2019-03-13T05:15:37.248Z,74.1
2019-03-13T05:16:26.718Z,73.9
2019-03-13T05:17:16.680Z,73.9
2019-03-13T05:18:07.417Z,73.8
2019-03-13T05:18:59.299Z,73.7
2019-03-13T05:19:57.846Z,73.7
2019-03-13T05:20:51.942Z,73.7
2019-03-13T05:21:41.930Z,73.7
2019-03-13T05:22:31.945Z,73.7
2019-03-13T05:23:22.139Z,73.6
2019-03-13T05:24:11.904Z,73.6
2019-03-13T05:25:01.928Z,73.6
2019-03-13T05:25:51.910Z,73.7
2019-03-13T05:26:43.239Z,73.9
2019-03-13T05:27:33.292Z,73.7
2019-03-13T05:28:23.483Z,73.6
2019-03-13T05:29:13.361Z,73.5
2019-03-13T05:30:06.824Z,73.6
2019-03-13T05:30:56.817Z,73.6
2019-03-13T05:31:46.830Z,73.6
2019-03-13T05:32:36.895Z,73.6
2019-03-13T05:33:26.918Z,73.5
2019-03-13T05:34:16.809Z,73.5
2019-03-13T05:35:06.799Z,73.4
2019-03-13T05:35:56.753Z,73.5
2019-03-13T05:36:46.790Z,73.3
2019-03-13T05:37:37.290Z,73.6
2019-03-13T05:38:27.515Z,73.3
2019-03-13T05:39:16.767Z,73.2
2019-03-13T05:40:07.300Z,73.1
2019-03-13T05:40:57.573Z,73.1
2019-03-13T05:41:47.364Z,73
2019-03-13T05:42:37.271Z,73
2019-03-13T05:43:27.329Z,73.1
2019-03-13T05:44:17.317Z,73
2019-03-13T05:45:08.312Z,73
2019-03-13T05:45:57.315Z,73
2019-03-13T05:46:47.313Z,72.9
2019-03-13T05:47:37.248Z,73
2019-03-13T05:48:27.298Z,72.9
2019-03-13T05:49:17.300Z,73
2019-03-13T05:50:07.266Z,72.9
2019-03-13T05:50:57.338Z,72.9
2019-03-13T05:51:47.331Z,72.8
2019-03-13T05:52:37.369Z,72.8
2019-03-13T05:53:27.366Z,72.7
2019-03-13T05:54:17.959Z,72.8
2019-03-13T05:55:07.947Z,72.7
2019-03-13T05:55:57.975Z,72.8
2019-03-13T05:56:47.957Z,72.8
2019-03-13T05:57:38.269Z,72.7
2019-03-13T05:58:28.366Z,72.6
2019-03-13T05:59:18.233Z,72.7
2019-03-13T06:00:08.198Z,72.5
2019-03-13T06:00:58.271Z,72.5
2019-03-13T06:01:48.188Z,72.3
2019-03-13T06:02:38.200Z,72.3
2019-03-13T06:03:29.694Z,72.3
2019-03-13T06:04:18.474Z,72.2
2019-03-13T06:05:08.492Z,72.3
2019-03-13T06:05:58.604Z,72
2019-03-13T06:06:48.433Z,72.1
2019-03-13T06:07:38.470Z,72.2
2019-03-13T06:08:30.092Z,72.1
2019-03-13T06:09:18.521Z,72.2
2019-03-13T06:10:08.514Z,72.2
2019-03-13T06:10:58.471Z,72.2
2019-03-13T06:11:48.512Z,72.1
2019-03-13T06:12:38.448Z,72.1
2019-03-13T06:13:28.514Z,72.2
2019-03-13T06:14:20.519Z,72.1
2019-03-13T06:15:10.528Z,72.1
2019-03-13T06:16:00.711Z,71.9
2019-03-13T06:16:51.139Z,71.7
2019-03-13T06:17:40.598Z,71.5
2019-03-13T06:18:31.051Z,71.5
2019-03-13T06:19:21.608Z,71.4
2019-03-13T06:20:10.858Z,71.4
2019-03-13T06:21:00.626Z,71.5
2019-03-13T06:21:50.585Z,71.5
2019-03-13T06:22:40.540Z,71.4
2019-03-13T06:23:32.833Z,71.4
2019-03-13T06:24:20.576Z,71.4
2019-03-13T06:25:10.618Z,71.3
2019-03-13T06:26:01.619Z,71.3
2019-03-13T06:26:51.460Z,71.1
2019-03-13T06:27:41.638Z,71.1
2019-03-13T06:28:33.599Z,70.9
2019-03-13T06:29:21.334Z,70.9
2019-03-13T06:30:11.317Z,70.9
2019-03-13T06:31:01.357Z,70.7
2019-03-13T06:31:51.501Z,70.5
2019-03-13T06:32:41.370Z,70.4
2019-03-13T06:33:32.688Z,70.7
2019-03-13T06:34:21.326Z,70.5
2019-03-13T06:35:11.317Z,70.5
2019-03-13T06:36:01.567Z,70.6
2019-03-13T06:36:51.554Z,70.2
2019-03-13T06:37:41.549Z,70.2
2019-03-13T06:38:35.073Z,70.1
2019-03-13T06:39:21.598Z,70.1
2019-03-13T06:40:11.555Z,70.2
2019-03-13T06:41:01.617Z,70.2
2019-03-13T06:41:51.586Z,70.1
2019-03-13T06:42:41.662Z,70
2019-03-13T06:43:31.758Z,69.9
2019-03-13T06:44:21.540Z,69.8
2019-03-13T06:45:11.643Z,69.6
2019-03-13T06:46:01.595Z,69.6
2019-03-13T06:46:51.585Z,69.2
2019-03-13T06:47:41.583Z,69.4
2019-03-13T06:48:31.588Z,69.3
2019-03-13T06:49:21.665Z,69.4
2019-03-13T06:50:11.567Z,69.1
2019-03-13T06:51:01.585Z,69.4
2019-03-13T06:51:51.565Z,69.1
2019-03-13T06:52:41.778Z,68.5
2019-03-13T06:53:31.936Z,68.8
2019-03-13T06:54:21.628Z,68.9
2019-03-13T06:55:11.619Z,69.1
2019-03-13T06:56:01.581Z,69.1
2019-03-13T06:56:51.579Z,69.3
2019-03-13T06:57:41.574Z,69.1
2019-03-13T06:58:31.618Z,69.2
2019-03-13T06:59:21.627Z,69
2019-03-13T07:00:11.590Z,69.2
2019-03-13T07:01:01.575Z,69.2
2019-03-13T07:01:51.566Z,69.1
2019-03-13T07:02:41.829Z,69.1
2019-03-13T07:03:31.876Z,69
2019-03-13T07:04:21.587Z,69.1
2019-03-13T07:05:11.587Z,69.2
2019-03-13T07:06:01.671Z,69.4
2019-03-13T07:06:51.596Z,69.3
2019-03-13T07:07:41.873Z,69.2
2019-03-13T07:08:31.581Z,68.9
2019-03-13T07:09:21.590Z,68.8
2019-03-13T07:10:11.575Z,68.9
2019-03-13T07:11:01.581Z,68.4
2019-03-13T07:11:51.580Z,68.2
2019-03-13T07:12:42.515Z,67.9
2019-03-13T07:13:31.633Z,67.9
2019-03-13T07:14:21.557Z,67.9
2019-03-13T07:15:12.368Z,68
2019-03-13T07:16:01.681Z,67.9
2019-03-13T07:16:51.784Z,68
2019-03-13T07:17:41.689Z,68.1
2019-03-13T07:18:31.572Z,67.6
2019-03-13T07:19:21.589Z,67.7
2019-03-13T07:20:11.865Z,67.6
2019-03-13T07:21:01.911Z,67.7
2019-03-13T07:21:51.589Z,67.8
2019-03-13T07:22:41.656Z,67.7
2019-03-13T07:23:31.803Z,67.8
2019-03-13T07:24:21.648Z,67.7
2019-03-13T07:25:11.626Z,67.6
2019-03-13T07:26:01.601Z,67.7
2019-03-13T07:26:51.633Z,67.7
2019-03-13T07:27:42.788Z,67.8
2019-03-13T07:28:31.566Z,67.1
2019-03-13T07:29:21.624Z,67.2
2019-03-13T07:30:11.619Z,67.3
2019-03-13T07:31:01.568Z,67.5
2019-03-13T07:31:51.620Z,67.5
2019-03-13T07:32:42.031Z,67.2
2019-03-13T07:33:31.614Z,67.4
2019-03-13T07:34:21.604Z,67.4
2019-03-13T07:35:11.600Z,67.3
2019-03-13T07:36:01.576Z,66.8
2019-03-13T07:36:51.662Z,66.8
2019-03-13T07:37:43.060Z,67.2
2019-03-13T07:38:31.613Z,66.9
2019-03-13T07:39:21.577Z,67.1
2019-03-13T07:40:11.609Z,67
2019-03-13T07:41:01.662Z,66.8
2019-03-13T07:41:51.604Z,67.1
2019-03-13T07:42:41.710Z,67.1
2019-03-13T07:43:31.623Z,67.1
2019-03-13T07:44:21.669Z,67.3
2019-03-13T07:45:11.605Z,67.4
2019-03-13T07:46:01.689Z,67.2
2019-03-13T07:46:51.646Z,67.2
2019-03-13T07:47:41.882Z,67.3
2019-03-13T07:48:31.597Z,67.4
2019-03-13T07:49:21.606Z,67.4
2019-03-13T07:50:11.604Z,67.6
2019-03-13T07:51:01.692Z,67.5
2019-03-13T07:51:51.586Z,67.5
2019-03-13T07:52:41.574Z,67.5
2019-03-13T07:53:32.013Z,67.4
2019-03-13T07:54:21.840Z,67.6
2019-03-13T07:55:11.856Z,67.4
2019-03-13T07:56:01.867Z,67.6
2019-03-13T07:56:51.885Z,67.5
2019-03-13T07:57:41.848Z,67.4
2019-03-13T07:58:31.840Z,67.2
2019-03-13T07:59:22.057Z,67.1
2019-03-13T08:00:11.907Z,67.1
2019-03-13T08:01:02.008Z,67.1
2019-03-13T08:01:51.796Z,67
2019-03-13T08:02:41.979Z,67
2019-03-13T08:03:31.884Z,67.1
2019-03-13T08:04:21.987Z,67.3
2019-03-13T08:05:11.865Z,67.2
2019-03-13T08:06:01.979Z,67.4
2019-03-13T08:06:51.916Z,67.5
2019-03-13T08:07:41.830Z,67.5
2019-03-13T08:08:31.855Z,67.7
2019-03-13T08:09:22.037Z,67
2019-03-13T08:10:12.001Z,66.7
2019-03-13T08:11:01.840Z,66.8
2019-03-13T08:11:51.850Z,66.8
2019-03-13T08:12:41.868Z,66.7
2019-03-13T08:13:31.890Z,66.7
2019-03-13T08:14:21.832Z,67
2019-03-13T08:15:11.882Z,66.9
2019-03-13T08:16:01.873Z,66.8
2019-03-13T08:16:51.909Z,67.1
2019-03-13T08:17:41.880Z,67
2019-03-13T08:18:31.951Z,67
2019-03-13T08:19:24.164Z,67
2019-03-13T08:20:12.040Z,67
2019-03-13T08:21:02.080Z,67.1
2019-03-13T08:22:41.871Z,67.2
2019-03-13T08:23:31.846Z,67.1
2019-03-13T08:24:21.859Z,66.9
2019-03-13T08:25:11.852Z,66.8
2019-03-13T08:26:03.049Z,66.8
2019-03-13T08:26:51.826Z,66.9
2019-03-13T08:27:41.923Z,66.9
2019-03-13T08:28:31.859Z,66.8
2019-03-13T08:29:21.969Z,66.8
2019-03-13T08:30:11.818Z,67
2019-03-13T08:31:02.172Z,67.1
2019-03-13T08:31:51.878Z,67.3
2019-03-13T08:32:41.886Z,67.2
2019-03-13T08:33:31.890Z,67.2
2019-03-13T08:34:21.884Z,67.3
2019-03-13T08:35:11.857Z,67.3
2019-03-13T08:36:01.861Z,66.9
2019-03-13T08:36:51.879Z,66.8
2019-03-13T08:37:42.162Z,67
2019-03-13T08:38:31.940Z,67.4
2019-03-13T08:39:21.895Z,67.2
2019-03-13T08:40:11.897Z,67.1
2019-03-13T08:41:01.857Z,67.4
2019-03-13T08:41:51.860Z,67.3
2019-03-13T08:42:41.899Z,67.2
2019-03-13T08:43:31.903Z,67.4
2019-03-13T08:44:21.895Z,67.7
2019-03-13T08:45:11.945Z,67.6
2019-03-13T08:46:02.862Z,67.6
2019-03-13T08:46:51.882Z,67.3
2019-03-13T08:47:42.417Z,67.4
2019-03-13T08:48:31.882Z,67.5
2019-03-13T08:49:21.854Z,67.7
2019-03-13T08:50:11.872Z,67.7
2019-03-13T08:51:01.864Z,68
2019-03-13T08:51:51.877Z,68.1
2019-03-13T08:52:41.885Z,68.1
2019-03-13T08:53:31.830Z,68.3
2019-03-13T08:54:21.864Z,68
2019-03-13T08:55:11.844Z,68.2
2019-03-13T08:56:02.073Z,68.1
2019-03-13T08:56:51.863Z,68.2
2019-03-13T08:57:41.825Z,68.3
2019-03-13T08:58:31.881Z,68.3
2019-03-13T08:59:23.521Z,68.3
2019-03-13T09:00:11.847Z,68
2019-03-13T09:01:01.861Z,68.1
2019-03-13T09:01:51.904Z,68.4
2019-03-13T09:02:41.886Z,68.5
2019-03-13T09:03:31.853Z,68.2
2019-03-13T09:04:21.875Z,68.1
2019-03-13T09:05:11.853Z,68.6
2019-03-13T09:06:02.650Z,68.6
2019-03-13T09:06:51.869Z,68.6
2019-03-13T09:07:41.963Z,68.7
2019-03-13T09:08:31.827Z,68.7
2019-03-13T09:09:21.884Z,68.5
2019-03-13T09:10:11.866Z,68.5
2019-03-13T09:11:01.843Z,68.2
2019-03-13T09:11:51.873Z,68.5
2019-03-13T09:12:41.893Z,68.3
2019-03-13T09:13:31.838Z,68.3
2019-03-13T09:14:21.902Z,68.2
2019-03-13T09:15:11.879Z,68.3
2019-03-13T09:16:01.875Z,68.6
2019-03-13T09:16:51.922Z,68.6
2019-03-13T09:17:41.904Z,68.7
2019-03-13T09:18:31.924Z,68.7
2019-03-13T09:19:21.874Z,68.5
2019-03-13T09:20:11.865Z,68.4
2019-03-13T09:21:01.930Z,68.7
2019-03-13T09:21:51.859Z,68.9
2019-03-13T09:22:41.876Z,68.8
2019-03-13T09:23:31.936Z,68.7
2019-03-13T09:24:21.887Z,68.6
2019-03-13T09:25:12.726Z,68.5
2019-03-13T09:26:03.084Z,68.6
2019-03-13T09:26:51.959Z,68.7
2019-03-13T09:27:41.896Z,68.7
2019-03-13T09:28:31.919Z,68.8
2019-03-13T09:29:21.904Z,68.7
2019-03-13T09:30:11.847Z,68.8
2019-03-13T09:31:01.926Z,68.8
2019-03-13T09:31:51.916Z,68.8
2019-03-13T09:32:41.845Z,68.5
2019-03-13T09:33:31.889Z,68.5
2019-03-13T09:34:21.855Z,68.8
2019-03-13T09:35:12.174Z,68.8
2019-03-13T09:36:02.365Z,68.7
2019-03-13T09:36:51.845Z,68.5
2019-03-13T09:37:41.883Z,68.7
2019-03-13T09:38:31.854Z,68.6
2019-03-13T09:39:21.819Z,68.4
2019-03-13T09:40:12.150Z,68.1
2019-03-13T09:41:01.922Z,68.5
2019-03-13T09:41:51.921Z,68.7
2019-03-13T09:42:41.904Z,68.5
2019-03-13T09:43:31.880Z,68.5
2019-03-13T09:44:21.864Z,68.5
2019-03-13T09:45:11.893Z,68.6
2019-03-13T09:46:02.818Z,68.7
2019-03-13T09:46:51.868Z,68.7
2019-03-13T09:47:41.864Z,68.9
2019-03-13T09:48:31.842Z,69
2019-03-13T09:49:21.866Z,69
2019-03-13T09:50:11.838Z,68.9
2019-03-13T09:51:01.937Z,69.1
2019-03-13T09:51:51.958Z,69
2019-03-13T09:52:41.900Z,69
2019-03-13T09:53:31.897Z,68.7
2019-03-13T09:54:21.930Z,68.8
2019-03-13T09:55:11.866Z,68.9
2019-03-13T09:56:02.471Z,68.9
2019-03-13T09:56:52.583Z,69.2
2019-03-13T09:57:42.438Z,69.1
2019-03-13T09:58:32.512Z,69.1
2019-03-13T09:59:22.466Z,69.2
2019-03-13T10:00:12.487Z,69
2019-03-13T10:01:02.503Z,69
2019-03-13T10:01:52.492Z,69
2019-03-13T10:02:42.501Z,68.9
2019-03-13T10:03:32.580Z,69.2
2019-03-13T10:04:22.466Z,69.2
2019-03-13T10:05:12.454Z,69.1
2019-03-13T10:06:02.434Z,69.3
2019-03-13T10:06:52.467Z,69.1
2019-03-13T10:07:42.559Z,69
2019-03-13T10:08:32.456Z,69.1
2019-03-13T10:09:22.503Z,68.9
2019-03-13T10:10:12.448Z,69
2019-03-13T10:11:02.598Z,68.8
2019-03-13T10:11:52.498Z,69
2019-03-13T10:12:42.937Z,68.9
2019-03-13T10:13:32.750Z,69.2
2019-03-13T10:14:22.731Z,69.2
2019-03-13T10:15:12.829Z,69.1
2019-03-13T10:16:03.194Z,69.1
2019-03-13T10:16:52.741Z,69.2
2019-03-13T10:17:42.744Z,69.2
2019-03-13T10:18:32.824Z,69.2
2019-03-13T10:19:22.729Z,69.2
2019-03-13T10:20:12.716Z,69.3
2019-03-13T10:21:02.701Z,69.3
2019-03-13T10:21:52.755Z,69.3
2019-03-13T10:22:42.722Z,69.4
2019-03-13T10:23:32.792Z,69.5
2019-03-13T10:24:22.726Z,69.5
2019-03-13T10:25:12.737Z,69.5
2019-03-13T10:26:02.936Z,69.5
2019-03-13T10:26:52.772Z,69.4
2019-03-13T10:27:42.723Z,69.5
2019-03-13T10:28:32.816Z,69.2
2019-03-13T10:29:23.031Z,69
2019-03-13T10:30:13.057Z,68.9
2019-03-13T10:31:02.974Z,69.1
2019-03-13T10:31:53.008Z,69.3
2019-03-13T10:32:43.078Z,69.2
2019-03-13T10:33:32.975Z,69.2
2019-03-13T10:34:22.989Z,69.1
2019-03-13T10:35:13.006Z,68.9
2019-03-13T10:36:03.299Z,69
2019-03-13T10:36:52.985Z,68.9
2019-03-13T10:37:43.068Z,68.7
2019-03-13T10:38:33.026Z,68.6
2019-03-13T10:39:23.113Z,68.6
2019-03-13T10:40:13.016Z,68.7
2019-03-13T10:41:02.974Z,68.4
2019-03-13T10:41:53.006Z,68.5
2019-03-13T10:42:43.204Z,68.5
2019-03-13T10:43:33.012Z,68.7
2019-03-13T10:44:22.954Z,68.8
2019-03-13T10:45:13.045Z,68.8
2019-03-13T10:46:02.962Z,68.3
2019-03-13T10:46:53.050Z,68.3
2019-03-13T10:47:43.074Z,68.3
2019-03-13T10:48:32.950Z,68.5
2019-03-13T10:49:23.454Z,68.6
2019-03-13T10:50:12.983Z,68.6
2019-03-13T10:51:02.978Z,68.5
2019-03-13T10:51:53.894Z,68.8
2019-03-13T10:52:43.915Z,68.6
2019-03-13T10:53:33.951Z,68.8
2019-03-13T10:54:24.316Z,68.8
2019-03-13T10:55:14.081Z,68.8
2019-03-13T10:56:04.314Z,68.9
2019-03-13T10:56:53.843Z,69.2
2019-03-13T10:57:43.906Z,68.8
2019-03-13T10:58:33.815Z,68.2
2019-03-13T10:59:23.906Z,68.4
2019-03-13T11:00:14.076Z,68.5
2019-03-13T11:01:04.061Z,68.5
2019-03-13T11:01:54.019Z,68.9
2019-03-13T11:02:44.036Z,68.3
2019-03-13T11:03:34.014Z,68.6
2019-03-13T11:04:24.192Z,68.2
2019-03-13T11:05:14.183Z,68
2019-03-13T11:06:04.502Z,68.4
2019-03-13T11:06:55.380Z,68.3
2019-03-13T11:07:44.058Z,68.4
2019-03-13T11:08:34.056Z,68
2019-03-13T11:09:24.216Z,68
2019-03-13T11:10:14.094Z,68.3
2019-03-13T11:11:04.043Z,67.7